sensor_id;sensor_type;location;lat;lon;timestamp;pressure;altitude;pressure_sealevel;temperature;humidity
35577;BME280;21680;52.400;16.920;2022-08-21T00:00:08;100430.36;;;18.43;96.43
35577;BME280;21680;52.400;16.920;2022-08-21T00:02:37;100428.62;;;18.37;96.58
35577;BME280;21680;52.400;16.920;2022-08-21T00:05:03;100425.65;;;18.29;96.49
35577;BME280;21680;52.400;16.920;2022-08-21T00:07:31;100420.34;;;18.27;96.43
35577;BME280;21680;52.400;16.920;2022-08-21T00:09:58;100399.14;;;18.10;96.24
35577;BME280;21680;52.400;16.920;2022-08-21T00:12:24;100425.05;;;18.20;96.30
35577;BME280;21680;52.400;16.920;2022-08-21T00:14:50;100421.22;;;18.16;96.23
35577;BME280;21680;52.400;16.920;2022-08-21T00:17:16;100423.43;;;18.11;96.19
35577;BME280;21680;52.400;16.920;2022-08-21T00:19:42;100419.34;;;18.06;96.46
35577;BME280;21680;52.400;16.920;2022-08-21T00:22:08;100428.83;;;18.00;96.37
35577;BME280;21680;52.400;16.920;2022-08-21T00:24:34;100429.92;;;17.98;96.31
35577;BME280;21680;52.400;16.920;2022-08-21T00:27:00;100428.81;;;17.95;96.25
35577;BME280;21680;52.400;16.920;2022-08-21T00:29:26;100418.20;;;17.92;96.24
35577;BME280;21680;52.400;16.920;2022-08-21T00:31:52;100424.61;;;17.91;96.18
35577;BME280;21680;52.400;16.920;2022-08-21T00:34:18;100423.37;;;17.89;96.24
35577;BME280;21680;52.400;16.920;2022-08-21T00:36:44;100426.57;;;17.89;96.21
35577;BME280;21680;52.400;16.920;2022-08-21T00:39:10;100419.05;;;17.87;96.15
35577;BME280;21680;52.400;16.920;2022-08-21T00:41:37;100419.05;;;17.87;96.11
35577;BME280;21680;52.400;16.920;2022-08-21T00:44:06;100413.74;;;17.85;96.19
35577;BME280;21680;52.400;16.920;2022-08-21T00:46:34;100419.54;;;17.86;96.32
35577;BME280;21680;52.400;16.920;2022-08-21T00:49:01;100419.66;;;17.84;96.35
35577;BME280;21680;52.400;16.920;2022-08-21T00:51:39;100419.28;;;17.83;96.44
35577;BME280;21680;52.400;16.920;2022-08-21T00:54:13;100419.77;;;17.83;96.75
35577;BME280;21680;52.400;16.920;2022-08-21T00:56:40;100419.89;;;17.81;96.78
35577;BME280;21680;52.400;16.920;2022-08-21T00:59:06;100426.67;;;17.81;96.72
35577;BME280;21680;52.400;16.920;2022-08-21T01:01:33;100416.20;;;17.82;97.05
35577;BME280;21680;52.400;16.920;2022-08-21T01:03:59;100412.74;;;17.80;96.86
35577;BME280;21680;52.400;16.920;2022-08-21T01:06:25;100410.89;;;17.81;96.74
35577;BME280;21680;52.400;16.920;2022-08-21T01:08:51;100408.06;;;17.82;96.90
35577;BME280;21680;52.400;16.920;2022-08-21T01:11:17;100409.91;;;17.82;96.74
35577;BME280;21680;52.400;16.920;2022-08-21T01:13:43;100407.20;;;17.82;96.66
35577;BME280;21680;52.400;16.920;2022-08-21T01:16:11;100406.83;;;17.81;96.66
35577;BME280;21680;52.400;16.920;2022-08-21T01:18:39;100398.32;;;17.80;96.93
35577;BME280;21680;52.400;16.920;2022-08-21T01:21:08;100396.09;;;17.79;96.96
35577;BME280;21680;52.400;16.920;2022-08-21T01:23:39;100398.06;;;17.77;96.90
35577;BME280;21680;52.400;16.920;2022-08-21T01:26:07;100387.83;;;17.75;96.97
35577;BME280;21680;52.400;16.920;2022-08-21T01:28:44;100399.05;;;17.76;97.09
35577;BME280;21680;52.400;16.920;2022-08-21T01:31:19;100396.34;;;17.76;97.05
35577;BME280;21680;52.400;16.920;2022-08-21T01:33:47;100394.48;;;17.77;97.06
35577;BME280;21680;52.400;16.920;2022-08-21T01:36:13;100398.56;;;17.77;97.10
35577;BME280;21680;52.400;16.920;2022-08-21T01:38:39;100399.91;;;17.77;97.11
35577;BME280;21680;52.400;16.920;2022-08-21T01:41:04;100396.34;;;17.76;97.20
35577;BME280;21680;52.400;16.920;2022-08-21T01:43:30;100389.93;;;17.77;97.40
35577;BME280;21680;52.400;16.920;2022-08-21T01:45:56;100398.93;;;17.78;97.31
35577;BME280;21680;52.400;16.920;2022-08-21T01:48:22;100387.22;;;17.77;97.48
35577;BME280;21680;52.400;16.920;2022-08-21T01:50:48;100389.93;;;17.77;97.38
35577;BME280;21680;52.400;16.920;2022-08-21T01:53:14;100382.17;;;17.78;97.39
35577;BME280;21680;52.400;16.920;2022-08-21T01:55:42;100373.30;;;17.76;97.40
35577;BME280;21680;52.400;16.920;2022-08-21T01:58:09;100386.84;;;17.76;97.45
35577;BME280;21680;52.400;16.920;2022-08-21T02:00:35;100384.25;;;17.75;97.73
35577;BME280;21680;52.400;16.920;2022-08-21T02:03:01;100382.03;;;17.74;97.83
35577;BME280;21680;52.400;16.920;2022-08-21T02:05:27;100382.66;;;17.78;98.21
35577;BME280;21680;52.400;16.920;2022-08-21T02:07:53;100371.08;;;17.76;98.03
35577;BME280;21680;52.400;16.920;2022-08-21T02:10:25;100371.94;;;17.76;98.27
35577;BME280;21680;52.400;16.920;2022-08-21T02:12:52;100373.04;;;17.74;98.15
35577;BME280;21680;52.400;16.920;2022-08-21T02:15:19;100373.04;;;17.74;98.08
35577;BME280;21680;52.400;16.920;2022-08-21T02:17:49;100365.40;;;17.73;98.02
35577;BME280;21680;52.400;16.920;2022-08-21T02:20:24;100369.95;;;17.73;97.88
35577;BME280;21680;52.400;16.920;2022-08-21T02:22:52;100363.67;;;17.72;97.75
35577;BME280;21680;52.400;16.920;2022-08-21T02:25:20;100364.89;;;17.68;97.84
35577;BME280;21680;52.400;16.920;2022-08-21T02:27:47;100369.08;;;17.67;97.90
35577;BME280;21680;52.400;16.920;2022-08-21T02:30:25;100355.73;;;17.64;97.99
35577;BME280;21680;52.400;16.920;2022-08-21T02:32:48;100365.70;;;17.63;98.06
35577;BME280;21680;52.400;16.920;2022-08-21T02:35:14;100353.37;;;17.59;98.24
35577;BME280;21680;52.400;16.920;2022-08-21T02:37:48;100350.78;;;17.58;98.51
35577;BME280;21680;52.400;16.920;2022-08-21T02:40:19;100349.28;;;17.53;98.73
35577;BME280;21680;52.400;16.920;2022-08-21T02:42:47;100353.82;;;17.47;98.66
35577;BME280;21680;52.400;16.920;2022-08-21T02:45:14;100354.05;;;17.44;98.69
35577;BME280;21680;52.400;16.920;2022-08-21T02:47:52;100347.03;;;17.42;98.72
35577;BME280;21680;52.400;16.920;2022-08-21T02:50:24;100343.45;;;17.41;98.76
35577;BME280;21680;52.400;16.920;2022-08-21T02:52:52;100354.27;;;17.36;98.77
35577;BME280;21680;52.400;16.920;2022-08-21T02:55:20;100350.06;;;17.32;99.09
35577;BME280;21680;52.400;16.920;2022-08-21T02:57:48;100354.36;;;17.29;99.05
35577;BME280;21680;52.400;16.920;2022-08-21T03:00:15;100351.27;;;17.28;99.25
35577;BME280;21680;52.400;16.920;2022-08-21T03:02:42;100348.56;;;17.28;99.35
35577;BME280;21680;52.400;16.920;2022-08-21T03:05:10;100356.81;;;17.26;99.50
35577;BME280;21680;52.400;16.920;2022-08-21T03:07:37;100361.48;;;17.24;99.46
35577;BME280;21680;52.400;16.920;2022-08-21T03:10:05;100376.00;;;17.23;99.65
35577;BME280;21680;52.400;16.920;2022-08-21T03:12:31;100361.59;;;17.23;99.91
35577;BME280;21680;52.400;16.920;2022-08-21T03:14:58;100358.51;;;17.22;99.95
35577;BME280;21680;52.400;16.920;2022-08-21T03:17:24;100359.48;;;17.20;99.95
35577;BME280;21680;52.400;16.920;2022-08-21T03:19:50;100358.13;;;17.20;99.94
35577;BME280;21680;52.400;16.920;2022-08-21T03:22:16;100378.56;;;17.19;100.00
35577;BME280;21680;52.400;16.920;2022-08-21T03:24:43;100375.97;;;17.17;100.00
35577;BME280;21680;52.400;16.920;2022-08-21T03:27:11;100359.46;;;17.15;100.00
35577;BME280;21680;52.400;16.920;2022-08-21T03:29:39;100370.90;;;17.13;100.00
35577;BME280;21680;52.400;16.920;2022-08-21T03:32:07;100377.18;;;17.13;100.00
35577;BME280;21680;52.400;16.920;2022-08-21T03:34:35;100364.73;;;17.11;100.00
35577;BME280;21680;52.400;16.920;2022-08-21T03:37:04;100373.46;;;17.09;100.00
35577;BME280;21680;52.400;16.920;2022-08-21T03:39:31;100382.94;;;17.09;100.00
35577;BME280;21680;52.400;16.920;2022-08-21T03:41:57;100381.21;;;17.08;100.00
35577;BME280;21680;52.400;16.920;2022-08-21T03:44:23;100379.86;;;17.08;100.00
35577;BME280;21680;52.400;16.920;2022-08-21T03:46:49;100380.72;;;17.08;100.00
35577;BME280;21680;52.400;16.920;2022-08-21T03:49:15;100392.53;;;17.07;100.00
35577;BME280;21680;52.400;16.920;2022-08-21T03:51:41;100384.78;;;17.08;100.00
35577;BME280;21680;52.400;16.920;2022-08-21T03:54:06;100388.95;;;17.07;100.00
35577;BME280;21680;52.400;16.920;2022-08-21T03:56:32;100409.16;;;17.08;100.00
35577;BME280;21680;52.400;16.920;2022-08-21T03:58:58;100412.73;;;17.09;100.00
35577;BME280;21680;52.400;16.920;2022-08-21T04:01:24;100406.56;;;17.07;100.00
35577;BME280;21680;52.400;16.920;2022-08-21T04:03:50;100409.00;;;17.04;100.00
35577;BME280;21680;52.400;16.920;2022-08-21T04:06:16;100409.50;;;17.04;100.00
35577;BME280;21680;52.400;16.920;2022-08-21T04:08:43;100427.32;;;17.01;100.00
35577;BME280;21680;52.400;16.920;2022-08-21T04:11:09;100428.86;;;16.92;100.00
35577;BME280;21680;52.400;16.920;2022-08-21T04:13:37;100431.79;;;16.89;100.00
35577;BME280;21680;52.400;16.920;2022-08-21T04:16:04;100434.23;;;16.86;100.00
35577;BME280;21680;52.400;16.920;2022-08-21T04:18:31;100425.25;;;16.86;100.00
35577;BME280;21680;52.400;16.920;2022-08-21T04:20:57;100429.69;;;16.87;100.00
35577;BME280;21680;52.400;16.920;2022-08-21T04:23:24;100429.69;;;16.87;100.00
35577;BME280;21680;52.400;16.920;2022-08-21T04:25:52;100434.50;;;16.89;100.00
35577;BME280;21680;52.400;16.920;2022-08-21T04:28:26;100429.30;;;16.86;100.00
35577;BME280;21680;52.400;16.920;2022-08-21T04:30:53;100427.69;;;16.83;100.00
35577;BME280;21680;52.400;16.920;2022-08-21T04:33:21;100445.77;;;16.83;100.00
35577;BME280;21680;52.400;16.920;2022-08-21T04:35:48;100418.70;;;16.83;100.00
35577;BME280;21680;52.400;16.920;2022-08-21T04:38:14;100418.70;;;16.83;100.00
35577;BME280;21680;52.400;16.920;2022-08-21T04:40:40;100421.78;;;16.84;100.00
35577;BME280;21680;52.400;16.920;2022-08-21T04:43:08;100411.22;;;16.86;100.00
35577;BME280;21680;52.400;16.920;2022-08-21T04:45:39;100405.80;;;16.86;100.00
35577;BME280;21680;52.400;16.920;2022-08-21T04:48:09;100423.30;;;16.88;100.00
35577;BME280;21680;52.400;16.920;2022-08-21T04:50:42;100423.18;;;16.90;100.00
35577;BME280;21680;52.400;16.920;2022-08-21T04:53:26;100424.42;;;16.91;100.00
35577;BME280;21680;52.400;16.920;2022-08-21T04:56:21;100425.17;;;16.93;100.00
35577;BME280;21680;52.400;16.920;2022-08-21T04:58:50;100437.36;;;16.93;100.00
35577;BME280;21680;52.400;16.920;2022-08-21T05:01:21;100443.91;;;16.96;100.00
35577;BME280;21680;52.400;16.920;2022-08-21T05:03:52;100440.70;;;16.97;100.00
35577;BME280;21680;52.400;16.920;2022-08-21T05:06:21;100444.17;;;16.99;100.00
35577;BME280;21680;52.400;16.920;2022-08-21T05:08:51;100444.66;;;16.98;100.00
35577;BME280;21680;52.400;16.920;2022-08-21T05:11:18;100456.12;;;17.02;100.00
35577;BME280;21680;52.400;16.920;2022-08-21T05:13:45;100445.30;;;17.02;100.00
35577;BME280;21680;52.400;16.920;2022-08-21T05:16:12;100447.63;;;17.01;100.00
35577;BME280;21680;52.400;16.920;2022-08-21T05:18:38;100455.27;;;17.01;100.00
35577;BME280;21680;52.400;16.920;2022-08-21T05:21:04;100456.02;;;17.03;100.00
35577;BME280;21680;52.400;16.920;2022-08-21T05:23:30;100463.66;;;17.04;100.00
35577;BME280;21680;52.400;16.920;2022-08-21T05:25:56;100464.41;;;17.06;100.00
35577;BME280;21680;52.400;16.920;2022-08-21T05:28:22;100458.02;;;17.07;100.00
35577;BME280;21680;52.400;16.920;2022-08-21T05:30:49;100473.17;;;17.09;100.00
35577;BME280;21680;52.400;16.920;2022-08-21T05:33:15;100468.13;;;17.10;100.00
35577;BME280;21680;52.400;16.920;2022-08-21T05:35:41;100456.32;;;17.11;100.00
35577;BME280;21680;52.400;16.920;2022-08-21T05:38:07;100450.30;;;17.13;100.00
35577;BME280;21680;52.400;16.920;2022-08-21T05:40:33;100450.19;;;17.15;100.00
35577;BME280;21680;52.400;16.920;2022-08-21T05:43:00;100455.98;;;17.16;100.00
35577;BME280;21680;52.400;16.920;2022-08-21T05:45:30;100446.02;;;17.16;100.00
35577;BME280;21680;52.400;16.920;2022-08-21T05:48:04;100443.19;;;17.18;100.00
35577;BME280;21680;52.400;16.920;2022-08-21T05:50:32;100452.45;;;17.21;100.00
35577;BME280;21680;52.400;16.920;2022-08-21T05:52:58;100451.47;;;17.22;100.00
35577;BME280;21680;52.400;16.920;2022-08-21T05:55:24;100441.88;;;17.24;100.00
35577;BME280;21680;52.400;16.920;2022-08-21T05:57:50;100442.73;;;17.24;100.00
35577;BME280;21680;52.400;16.920;2022-08-21T06:00:16;100443.00;;;17.27;100.00
35577;BME280;21680;52.400;16.920;2022-08-21T06:02:42;100449.77;;;17.27;100.00
35577;BME280;21680;52.400;16.920;2022-08-21T06:05:08;100443.64;;;17.30;100.00
35577;BME280;21680;52.400;16.920;2022-08-21T06:07:34;100444.50;;;17.31;100.00
35577;BME280;21680;52.400;16.920;2022-08-21T06:10:00;100441.42;;;17.30;100.00
35577;BME280;21680;52.400;16.920;2022-08-21T06:12:26;100433.17;;;17.31;100.00
35577;BME280;21680;52.400;16.920;2022-08-21T06:14:52;100453.64;;;17.35;100.00
35577;BME280;21680;52.400;16.920;2022-08-21T06:17:18;100428.28;;;17.36;100.00
35577;BME280;21680;52.400;16.920;2022-08-21T06:19:45;100425.83;;;17.39;100.00
35577;BME280;21680;52.400;16.920;2022-08-21T06:22:13;100430.64;;;17.41;100.00
35577;BME280;21680;52.400;16.920;2022-08-21T06:24:38;100425.98;;;17.43;100.00
35577;BME280;21680;52.400;16.920;2022-08-21T06:27:06;100407.01;;;17.43;100.00
35577;BME280;21680;52.400;16.920;2022-08-21T06:29:33;100422.17;;;17.45;100.00
35577;BME280;21680;52.400;16.920;2022-08-21T06:32:01;100402.45;;;17.43;100.00
35577;BME280;21680;52.400;16.920;2022-08-21T06:34:27;100402.57;;;17.42;100.00
35577;BME280;21680;52.400;16.920;2022-08-21T06:36:53;100416.72;;;17.40;100.00
35577;BME280;21680;52.400;16.920;2022-08-21T06:39:18;100418.80;;;17.36;100.00
35577;BME280;21680;52.400;16.920;2022-08-21T06:41:44;100419.03;;;17.33;100.00
35577;BME280;21680;52.400;16.920;2022-08-21T06:44:10;100422.34;;;17.31;100.00
35577;BME280;21680;52.400;16.920;2022-08-21T06:46:36;100435.25;;;17.28;100.00
35577;BME280;21680;52.400;16.920;2022-08-21T06:49:03;100446.92;;;17.23;100.00
35577;BME280;21680;52.400;16.920;2022-08-21T06:51:29;100451.02;;;17.10;100.00
35577;BME280;21680;52.400;16.920;2022-08-21T06:53:55;100450.72;;;17.02;100.00
35577;BME280;21680;52.400;16.920;2022-08-21T06:56:22;100464.44;;;16.93;100.00
35577;BME280;21680;52.400;16.920;2022-08-21T06:58:48;100465.25;;;16.88;100.00
35577;BME280;21680;52.400;16.920;2022-08-21T07:01:14;100456.48;;;16.84;100.00
35577;BME280;21680;52.400;16.920;2022-08-21T07:03:42;100468.14;;;16.79;100.00
35577;BME280;21680;52.400;16.920;2022-08-21T07:06:09;100475.02;;;16.78;100.00
35577;BME280;21680;52.400;16.920;2022-08-21T07:08:37;100485.08;;;16.76;100.00
35577;BME280;21680;52.400;16.920;2022-08-21T07:11:20;100487.03;;;16.74;100.00
35577;BME280;21680;52.400;16.920;2022-08-21T07:13:44;100484.28;;;16.68;100.00
35577;BME280;21680;52.400;16.920;2022-08-21T07:16:10;100483.90;;;16.67;100.00
35577;BME280;21680;52.400;16.920;2022-08-21T07:18:37;100481.79;;;16.65;100.00
35577;BME280;21680;52.400;16.920;2022-08-21T07:21:05;100479.46;;;16.66;100.00
35577;BME280;21680;52.400;16.920;2022-08-21T07:23:36;100478.59;;;16.66;100.00
35577;BME280;21680;52.400;16.920;2022-08-21T07:26:03;100485.92;;;16.64;100.00
35577;BME280;21680;52.400;16.920;2022-08-21T07:28:30;100483.44;;;16.61;100.00
35577;BME280;21680;52.400;16.920;2022-08-21T07:30:57;100482.95;;;16.61;100.00
35577;BME280;21680;52.400;16.920;2022-08-21T07:33:28;100478.41;;;16.62;100.00
35577;BME280;21680;52.400;16.920;2022-08-21T07:35:55;100473.75;;;16.64;100.00
35577;BME280;21680;52.400;16.920;2022-08-21T07:38:22;100471.72;;;16.67;100.00
35577;BME280;21680;52.400;16.920;2022-08-21T07:40:50;100470.69;;;16.75;100.00
35577;BME280;21680;52.400;16.920;2022-08-21T07:43:16;100470.25;;;16.81;100.00
35577;BME280;21680;52.400;16.920;2022-08-21T07:45:44;100466.94;;;16.83;100.00
35577;BME280;21680;52.400;16.920;2022-08-21T07:48:10;100459.35;;;16.88;100.00
35577;BME280;21680;52.400;16.920;2022-08-21T07:50:37;100461.84;;;16.92;100.00
35577;BME280;21680;52.400;16.920;2022-08-21T07:53:04;100464.21;;;16.96;100.00
35577;BME280;21680;52.400;16.920;2022-08-21T07:55:30;100467.19;;;16.99;100.00
35577;BME280;21680;52.400;16.920;2022-08-21T07:57:56;100466.96;;;17.02;100.00
35577;BME280;21680;52.400;16.920;2022-08-21T08:00:24;100464.73;;;17.01;100.00
35577;BME280;21680;52.400;16.920;2022-08-21T08:02:52;100474.33;;;17.00;100.00
35577;BME280;21680;52.400;16.920;2022-08-21T08:05:23;100476.02;;;16.95;100.00
35577;BME280;21680;52.400;16.920;2022-08-21T08:07:51;100479.33;;;16.93;100.00
35577;BME280;21680;52.400;16.920;2022-08-21T08:10:17;100478.45;;;16.93;100.00
35577;BME280;21680;52.400;16.920;2022-08-21T08:12:45;100480.30;;;16.92;100.00
35577;BME280;21680;52.400;16.920;2022-08-21T08:15:15;100481.66;;;16.92;100.00
35577;BME280;21680;52.400;16.920;2022-08-21T08:17:42;100477.48;;;16.94;100.00
35577;BME280;21680;52.400;16.920;2022-08-21T08:20:10;100482.03;;;16.93;100.00
35577;BME280;21680;52.400;16.920;2022-08-21T08:22:38;100485.72;;;16.92;100.00
35577;BME280;21680;52.400;16.920;2022-08-21T08:25:07;100486.20;;;16.92;100.00
35577;BME280;21680;52.400;16.920;2022-08-21T08:27:33;100496.81;;;16.95;100.00
35577;BME280;21680;52.400;16.920;2022-08-21T08:30:00;100494.59;;;16.94;100.00
35577;BME280;21680;52.400;16.920;2022-08-21T08:32:26;100493.99;;;16.96;100.00
35577;BME280;21680;52.400;16.920;2022-08-21T08:34:52;100503.73;;;16.99;100.00
35577;BME280;21680;52.400;16.920;2022-08-21T08:37:19;100505.20;;;16.97;100.00
35577;BME280;21680;52.400;16.920;2022-08-21T08:39:45;100510.46;;;16.93;100.00
35577;BME280;21680;52.400;16.920;2022-08-21T08:42:30;100507.27;;;16.94;100.00
35577;BME280;21680;52.400;16.920;2022-08-21T08:47:39;100496.55;;;16.92;100.00
35577;BME280;21680;52.400;16.920;2022-08-21T08:52:48;100494.33;;;16.92;100.00
35577;BME280;21680;52.400;16.920;2022-08-21T08:55:21;100484.84;;;16.92;100.00
35577;BME280;21680;52.400;16.920;2022-08-21T08:57:48;100485.83;;;16.91;100.00
35577;BME280;21680;52.400;16.920;2022-08-21T09:00:18;100490.00;;;16.89;100.00
35577;BME280;21680;52.400;16.920;2022-08-21T09:02:47;100495.79;;;16.90;100.00
35577;BME280;21680;52.400;16.920;2022-08-21T09:05:44;100498.01;;;16.91;100.00
35577;BME280;21680;52.400;16.920;2022-08-21T09:17:30;100490.09;;;17.00;100.00
35577;BME280;21680;52.400;16.920;2022-08-21T09:23:16;100499.02;;;17.08;100.00
35577;BME280;21680;52.400;16.920;2022-08-21T09:26:07;100508.98;;;17.07;100.00
35577;BME280;21680;52.400;16.920;2022-08-21T09:28:35;100518.83;;;17.08;100.00
35577;BME280;21680;52.400;16.920;2022-08-21T09:31:08;100514.28;;;17.09;100.00
35577;BME280;21680;52.400;16.920;2022-08-21T09:33:36;100520.19;;;17.08;100.00
35577;BME280;21680;52.400;16.920;2022-08-21T09:36:03;100515.26;;;17.08;100.00
35577;BME280;21680;52.400;16.920;2022-08-21T09:38:35;100516.98;;;17.09;100.00
35577;BME280;21680;52.400;16.920;2022-08-21T09:41:05;100514.55;;;17.11;100.00
35577;BME280;21680;52.400;16.920;2022-08-21T09:43:35;100514.33;;;17.14;100.00
35577;BME280;21680;52.400;16.920;2022-08-21T09:46:09;100508.42;;;17.15;100.00
35577;BME280;21680;52.400;16.920;2022-08-21T09:48:42;100504.36;;;17.15;100.00
35577;BME280;21680;52.400;16.920;2022-08-21T09:51:19;100502.14;;;17.14;100.00
35577;BME280;21680;52.400;16.920;2022-08-21T09:54:14;100512.86;;;17.16;100.00
35577;BME280;21680;52.400;16.920;2022-08-21T09:57:00;100514.48;;;17.18;100.00
35577;BME280;21680;52.400;16.920;2022-08-21T09:59:53;100515.72;;;17.20;100.00
35577;BME280;21680;52.400;16.920;2022-08-21T10:02:34;100515.98;;;17.23;100.00
35577;BME280;21680;52.400;16.920;2022-08-21T10:05:03;100513.17;;;17.24;100.00
35577;BME280;21680;52.400;16.920;2022-08-21T10:07:37;100515.39;;;17.25;100.00
35577;BME280;21680;52.400;16.920;2022-08-21T10:10:14;100522.80;;;17.28;100.00
35577;BME280;21680;52.400;16.920;2022-08-21T10:15:56;100534.66;;;17.33;100.00
35577;BME280;21680;52.400;16.920;2022-08-21T10:18:30;100536.27;;;17.35;100.00
35577;BME280;21680;52.400;16.920;2022-08-21T10:21:26;100530.74;;;17.37;100.00
35577;BME280;21680;52.400;16.920;2022-08-21T10:27:27;100534.58;;;17.40;100.00
35577;BME280;21680;52.400;16.920;2022-08-21T10:29:59;100524.23;;;17.39;100.00
35577;BME280;21680;52.400;16.920;2022-08-21T10:35:45;100524.77;;;17.44;100.00
35577;BME280;21680;52.400;16.920;2022-08-21T10:41:44;100518.40;;;17.51;100.00
35577;BME280;21680;52.400;16.920;2022-08-21T10:44:34;100506.84;;;17.55;100.00
35577;BME280;21680;52.400;16.920;2022-08-21T10:47:13;100510.56;;;17.59;100.00
35577;BME280;21680;52.400;16.920;2022-08-21T10:50:10;100510.34;;;17.62;100.00
35577;BME280;21680;52.400;16.920;2022-08-21T10:52:51;100512.63;;;17.68;100.00
35577;BME280;21680;52.400;16.920;2022-08-21T10:55:35;100507.83;;;17.72;100.00
35577;BME280;21680;52.400;16.920;2022-08-21T10:58:11;100508.35;;;17.77;100.00
35577;BME280;21680;52.400;16.920;2022-08-21T11:00:52;100508.88;;;17.82;100.00
35577;BME280;21680;52.400;16.920;2022-08-21T11:03:29;100511.95;;;17.83;100.00
35577;BME280;21680;52.400;16.920;2022-08-21T11:06:14;100507.80;;;17.90;100.00
35577;BME280;21680;52.400;16.920;2022-08-21T11:08:46;100507.08;;;17.94;100.00
35577;BME280;21680;52.400;16.920;2022-08-21T11:16:42;100490.50;;;18.09;100.00
35577;BME280;21680;52.400;16.920;2022-08-21T11:19:33;100460.00;;;17.95;100.00
35577;BME280;21680;52.400;16.920;2022-08-21T11:22:11;100470.77;;;18.07;100.00
35577;BME280;21680;52.400;16.920;2022-08-21T11:24:59;100500.74;;;18.23;100.00
35577;BME280;21680;52.400;16.920;2022-08-21T11:27:48;100495.69;;;18.24;100.00
35577;BME280;21680;52.400;16.920;2022-08-21T11:30:24;100498.64;;;18.21;100.00
35577;BME280;21680;52.400;16.920;2022-08-21T11:33:04;100493.21;;;18.21;100.00
35577;BME280;21680;52.400;16.920;2022-08-21T11:35:49;100486.70;;;18.18;100.00
35577;BME280;21680;52.400;16.920;2022-08-21T11:38:30;100484.83;;;18.12;100.00
35577;BME280;21680;52.400;16.920;2022-08-21T11:41:05;100470.90;;;18.11;100.00
35577;BME280;21680;52.400;16.920;2022-08-21T11:44:10;100462.27;;;18.12;100.00
35577;BME280;21680;52.400;16.920;2022-08-21T11:46:58;100448.70;;;18.12;100.00
35577;BME280;21680;52.400;16.920;2022-08-21T11:52:29;100442.06;;;18.16;100.00
35577;BME280;21680;52.400;16.920;2022-08-21T11:58:01;100463.02;;;18.14;100.00
35577;BME280;21680;52.400;16.920;2022-08-21T12:00:36;100468.81;;;18.15;100.00
35577;BME280;21680;52.400;16.920;2022-08-21T12:03:24;100474.84;;;18.13;100.00
35577;BME280;21680;52.400;16.920;2022-08-21T12:05:53;100481.63;;;18.13;100.00
35577;BME280;21680;52.400;16.920;2022-08-21T12:08:37;100488.91;;;18.12;100.00
35577;BME280;21680;52.400;16.920;2022-08-21T12:14:11;100490.98;;;18.09;100.00
35577;BME280;21680;52.400;16.920;2022-08-21T12:16:37;100470.47;;;17.94;100.00
35577;BME280;21680;52.400;16.920;2022-08-21T12:24:49;100495.43;;;18.10;100.00
35577;BME280;21680;52.400;16.920;2022-08-21T12:27:30;100484.06;;;18.05;100.00
35577;BME280;21680;52.400;16.920;2022-08-21T12:30:05;100496.78;;;18.10;100.00
35577;BME280;21680;52.400;16.920;2022-08-21T12:32:45;100473.32;;;17.98;100.00
35577;BME280;21680;52.400;16.920;2022-08-21T12:35:18;100507.27;;;18.09;100.00
35577;BME280;21680;52.400;16.920;2022-08-21T12:38:02;100507.14;;;18.10;100.00
35577;BME280;21680;52.400;16.920;2022-08-21T12:43:40;100504.17;;;18.08;100.00
35577;BME280;21680;52.400;16.920;2022-08-21T12:46:20;100501.33;;;18.04;100.00
35577;BME280;21680;52.400;16.920;2022-08-21T12:48:52;100502.68;;;18.04;100.00
35577;BME280;21680;52.400;16.920;2022-08-21T12:51:36;100511.84;;;18.14;100.00
35577;BME280;21680;52.400;16.920;2022-08-21T12:54:08;100518.13;;;18.14;100.00
35577;BME280;21680;52.400;16.920;2022-08-21T12:56:34;100520.47;;;18.13;100.00
35577;BME280;21680;52.400;16.920;2022-08-21T12:59:04;100521.83;;;18.13;100.00
35577;BME280;21680;52.400;16.920;2022-08-21T13:01:38;100521.83;;;18.13;100.00
35577;BME280;21680;52.400;16.920;2022-08-21T13:04:16;100518.51;;;18.15;100.00
35577;BME280;21680;52.400;16.920;2022-08-21T13:06:43;100523.44;;;18.16;100.00
35577;BME280;21680;52.400;16.920;2022-08-21T13:09:12;100522.95;;;18.16;100.00
35577;BME280;21680;52.400;16.920;2022-08-21T13:11:42;100499.48;;;18.04;100.00
35577;BME280;21680;52.400;16.920;2022-08-21T13:14:21;100523.70;;;18.19;100.00
35577;BME280;21680;52.400;16.920;2022-08-21T13:16:45;100517.78;;;18.19;100.00
35577;BME280;21680;52.400;16.920;2022-08-21T13:19:16;100525.42;;;18.20;100.00
35577;BME280;21680;52.400;16.920;2022-08-21T13:21:43;100518.64;;;18.20;100.00
35577;BME280;21680;52.400;16.920;2022-08-21T13:24:25;100516.42;;;18.19;100.00
35577;BME280;21680;52.400;16.920;2022-08-21T13:26:53;100521.58;;;18.22;100.00
35577;BME280;21680;52.400;16.920;2022-08-21T13:29:26;100526.89;;;18.24;100.00
35577;BME280;21680;52.400;16.920;2022-08-21T13:31:54;100523.69;;;18.24;100.00
35577;BME280;21680;52.400;16.920;2022-08-21T13:34:28;100532.20;;;18.25;100.00
35577;BME280;21680;52.400;16.920;2022-08-21T13:37:03;100535.89;;;18.24;100.00
35577;BME280;21680;52.400;16.920;2022-08-21T13:39:32;100526.39;;;18.24;100.00
35577;BME280;21680;52.400;16.920;2022-08-21T13:42:00;100535.52;;;18.23;100.00